Flight Track Log - Related Links

Times and Time Zones

All times are in EDT time to prevent confusion due to time zone crossing. See the UAL3776 flight status page for this flight to view local times or setup timezone preferences in your user account.

Time Position Orientation Groundspeed Altitude Reporting Facility
EDT Latitude Longitude Course Direction KTS MPH feet Rate Location/Type
Wed 04:50:17 PM 38.9167 -77.5500 201° Southwest 206 237 3,000  Level Potomac TRACON
Wed 04:51:18 PM 38.8500 -77.5667 191° South 259 298 5,300 2,602 Climbing Potomac TRACON
Wed 04:52:00 PM 38.5262 -77.6491 185° South  Level Estimated
Wed 04:53:00 PM 38.4281 -77.5810 151° Southeast  Level FlightAware Approximate
Wed 04:53:03 PM 38.7264 -77.5633 179° South 287 330 10,200  Level Washington Center
Wed 04:54:00 PM 38.3239 -77.6321 201° Southwest  Level Estimated
Wed 04:54:03 PM 38.6283 -77.5661 181° South 315 362 11,400  Level Washington Center
Wed 04:55:00 PM 38.2197 -77.6830 201° Southwest  Level Estimated
Wed 04:55:03 PM 38.5239 -77.5686 181° South 355 409 13,400  Level Washington Center
Wed 04:56:03 PM 38.4197 -77.5714 181° South 376 433 15,600 2,000 Climbing Washington Center
Wed 04:57:03 PM 38.3247 -77.6322 207° Southwest 375 432 17,400 1,750 Climbing Washington Center
Wed 04:58:03 PM 38.2339 -77.7117 214° Southwest 381 438 19,100 1,600 Climbing Washington Center
Wed 04:59:03 PM 38.1406 -77.7908 214° Southwest 398 458 20,600 1,400 Climbing Washington Center
Wed 05:00:03 PM 38.0644 -77.8547 213° Southwest 410 472 21,900 1,550 Climbing Washington Center
Wed 05:01:03 PM 37.9519 -77.9514 214° Southwest 415 478 23,700 1,050 Climbing Washington Center
Wed 05:02:03 PM 37.8522 -78.0325 213° Southwest 420 483 24,000 150 Climbing Washington Center
Wed 05:03:03 PM 37.7567 -78.1133 214° Southwest 449 517 24,000  Level Washington Center
Wed 05:04:03 PM 37.6547 -78.2017 214° Southwest 454 522 24,000  Level Washington Center
Wed 05:05:03 PM 37.5483 -78.2925 214° Southwest 454 522 24,000 -250 Level Washington Center
Wed 05:06:03 PM 37.4422 -78.3828 214° Southwest 459 528 23,500 -750 Descending Washington Center
Wed 05:07:03 PM 37.3358 -78.4678 212° Southwest 459 528 22,500 -1,150 Descending Washington Center
Wed 05:08:03 PM 37.2147 -78.5544 210° Southwest 459 528 21,200 -2,000 Descending Washington Center
Wed 05:09:03 PM 37.1147 -78.6339 212° Southwest 454 522 18,500 -1,650 Descending Washington Center
Wed 05:10:03 PM 37.0086 -78.7025 207° Southwest 448 516 17,900 -900 Descending Washington Center
Wed 05:11:03 PM 36.8969 -78.7475 198° South 433 498 16,700 -1,450 Descending Washington Center
Wed 05:12:03 PM 36.7981 -78.7822 196° South 423 487 15,000 -1,700 Descending Washington Center
Wed 05:13:03 PM 36.6903 -78.8244 197° South 413 475 13,300 -1,760 Descending Washington Center
Wed 05:13:18 PM 36.6544 -78.8386 198° South 403 464 12,800 -1,568 Descending Washington Center
Wed 05:14:31 PM 36.5281 -78.8850 196° South 384 442 11,000 -1,314 Descending Washington Center
Wed 05:15:03 PM 36.4878 -78.9039 201° Southwest 393 452 10,500 -885 Descending Washington Center
Wed 05:15:32 PM 36.4289 -78.9247 196° South 365 420 10,100 -500 Descending Washington Center
Wed 05:16:03 PM 36.3894 -78.9206 175° South 380 437 10,000 -197 Descending Washington Center
Wed 05:16:33 PM 36.3425 -78.8850 149° Southeast 293 337 9,900 -500 Descending Washington Center
Wed 05:17:03 PM 36.3139 -78.8606 145° Southeast 302 348 9,500 -1,000 Descending Washington Center
Wed 05:17:33 PM 36.2772 -78.8306 147° Southeast 274 315 8,900 -1,000 Descending Washington Center
Wed 05:18:03 PM 36.2569 -78.8067 136° Southeast 283 326 8,500 -885 Descending Washington Center
Wed 05:18:34 PM 36.2158 -78.7767 150° Southeast 265 305 8,000 -700 Descending Washington Center
Wed 05:19:03 PM 36.2019 -78.7581 133° Southeast 265 305 7,800 -1,475 Descending Washington Center
Wed 05:19:35 PM 36.1650 -78.7283 147° Southeast 233 268 6,500 -2,100 Descending Washington Center
Wed 05:20:03 PM 36.1386 -78.7042 144° Southeast 249 287 5,700 -1,600 Descending Washington Center
Wed 05:20:35 PM 36.1078 -78.6850 153° Southeast 233 268 4,900 -1,500 Descending Washington Center
Wed 05:21:03 PM 36.0892 -78.6739 154° Southeast 235 270 4,200 -1,672 Descending Washington Center
Wed 05:21:36 PM 36.0544 -78.6494 150° Southeast 215 247 3,200 -1,200 Descending Washington Center
Wed 05:22:03 PM 36.0378 -78.6539 192° South 214 246 3,000 -218 Descending Washington Center
Wed 05:22:31 PM 36.0039 -78.6628 192° South 203 234 3,000  Level Washington Center

Login

Don't have an account? Register now (free) for customized features, flight alerts, and more!